Time;durP1;ratioP1;P1;durP2;ratioP2;P2;SDS_P1;SDS_P2;PMS_P1;PMS_P2;Temp;Humidity;BMP_temperature;BMP_pressure;BME280_temperature;BME280_humidity;BME280_pressure;Samples;Min_cycle;Max_cycle;Signal;HPM_P1;HPM_P2
2021/12/25 00:00:11;;;;;;;0.80;0.80;;;;;;;;;;4994287;28;20030;-69
2021/12/25 00:02:36;;;;;;;1.52;1.15;;;;;;;;;;4995247;28;20053;-69
2021/12/25 00:05:02;;;;;;;1.10;1.00;;;;;;;;;;4979198;28;20469;-69
2021/12/25 00:07:27;;;;;;;0.90;0.90;;;;;;;;;;4995564;28;20038;-69
2021/12/25 00:09:52;;;;;;;0.80;0.80;;;;;;;;;;4993950;28;20710;-69
2021/12/25 00:12:18;;;;;;;0.77;0.77;;;;;;;;;;4996937;28;20559;-69
2021/12/25 00:14:43;;;;;;;0.95;0.90;;;;;;;;;;4996397;28;20061;-69
2021/12/25 00:17:08;;;;;;;0.90;0.90;;;;;;;;;;4997510;28;20022;-68
2021/12/25 00:19:34;;;;;;;0.80;0.80;;;;;;;;;;4997377;28;20421;-68
2021/12/25 00:22:00;;;;;;;0.88;0.88;;;;;;;;;;4995709;28;20485;-68
2021/12/25 00:24:25;;;;;;;0.90;0.90;;;;;;;;;;4997502;28;20049;-69
2021/12/25 00:27:22;;;;;;;1.25;1.10;;;;;;;;;;4995978;28;20113;-71
2021/12/25 00:34:47;;;;;;;2.28;0.98;;;;;;;;;;4996379;28;20760;-71
2021/12/25 00:37:12;;;;;;;0.75;0.75;;;;;;;;;;4994721;28;20116;-71
2021/12/25 00:39:37;;;;;;;0.77;0.77;;;;;;;;;;4991783;28;20034;-72
2021/12/25 00:42:03;;;;;;;0.80;0.80;;;;;;;;;;4991551;28;20072;-71
2021/12/25 00:44:29;;;;;;;0.70;0.70;;;;;;;;;;4990814;28;20038;-71
2021/12/25 00:46:54;;;;;;;0.65;0.65;;;;;;;;;;4988059;28;20022;-72
2021/12/25 00:49:20;;;;;;;1.58;0.63;;;;;;;;;;4994796;28;20038;-71
2021/12/25 00:51:45;;;;;;;0.98;0.63;;;;;;;;;;4995521;28;20392;-71
2021/12/25 00:54:11;;;;;;;0.70;0.70;;;;;;;;;;4996345;28;20431;-72
2021/12/25 00:56:37;;;;;;;1.75;0.90;;;;;;;;;;4994726;28;20113;-71
2021/12/25 00:59:02;;;;;;;0.90;0.80;;;;;;;;;;4996607;28;20622;-71
2021/12/25 01:01:27;;;;;;;1.23;0.90;;;;;;;;;;4992757;28;20501;-71
2021/12/25 01:03:52;;;;;;;0.70;0.70;;;;;;;;;;4996910;28;20089;-71
2021/12/25 01:06:18;;;;;;;0.90;0.90;;;;;;;;;;4995338;28;20473;-71
2021/12/25 01:08:43;;;;;;;0.70;0.70;;;;;;;;;;4997889;28;20026;-71
2021/12/25 01:11:09;;;;;;;0.70;0.70;;;;;;;;;;4980174;28;20037;-70
2021/12/25 01:13:47;;;;;;;1.00;0.93;;;;;;;;;;4997226;28;20022;-71
2021/12/25 01:16:27;;;;;;;1.10;0.90;;;;;;;;;;4999680;28;20080;-71
2021/12/25 01:24:19;;;;;;;0.80;0.80;;;;;;;;;;4997932;28;20022;-71
2021/12/25 01:40:08;;;;;;;0.98;0.98;;;;;;;;;;4998388;28;20115;-71
2021/12/25 01:48:01;;;;;;;0.82;0.73;;;;;;;;;;4997163;28;20061;-71
2021/12/25 01:50:27;;;;;;;1.60;0.90;;;;;;;;;;4996242;28;20048;-71
2021/12/25 01:52:53;;;;;;;0.70;0.70;;;;;;;;;;4997374;28;20089;-70
2021/12/25 01:55:26;;;;;;;1.15;0.73;;;;;;;;;;4998032;28;20503;-70
2021/12/25 01:57:52;;;;;;;2.15;0.88;;;;;;;;;;4995363;28;20030;-71
2021/12/25 02:00:43;;;;;;;0.90;0.90;;;;;;;;;;4994484;28;20050;-70
2021/12/25 02:03:10;;;;;;;1.00;0.90;;;;;;;;;;4995453;28;20030;-71
2021/12/25 02:05:35;;;;;;;0.80;0.80;;;;;;;;;;4998440;28;20034;-71
2021/12/25 02:08:00;;;;;;;0.60;0.60;;;;;;;;;;4996930;28;20497;-71
2021/12/25 02:10:26;;;;;;;0.75;0.75;;;;;;;;;;4997264;28;20109;-71
2021/12/25 02:12:51;;;;;;;0.90;0.90;;;;;;;;;;4997431;28;20057;-72
2021/12/25 02:15:21;;;;;;;0.80;0.80;;;;;;;;;;4997917;28;20022;-71
2021/12/25 02:17:59;;;;;;;0.75;0.75;;;;;;;;;;4982654;28;20061;-71
2021/12/25 02:20:34;;;;;;;0.80;0.80;;;;;;;;;;4998420;28;20034;-71
2021/12/25 02:23:03;;;;;;;1.17;0.75;;;;;;;;;;4998187;28;20468;-70
2021/12/25 02:25:30;;;;;;;1.02;0.90;;;;;;;;;;4997316;28;20422;-71
2021/12/25 02:27:56;;;;;;;1.17;0.88;;;;;;;;;;4997816;28;20488;-71
2021/12/25 02:30:21;;;;;;;0.75;0.75;;;;;;;;;;4995712;28;20040;-71
2021/12/25 02:32:46;;;;;;;0.60;0.60;;;;;;;;;;4995527;28;20448;-71
2021/12/25 02:35:13;;;;;;;1.10;0.90;;;;;;;;;;4995994;28;20037;-72
2021/12/25 02:37:39;;;;;;;0.70;0.70;;;;;;;;;;4996509;28;20022;-71
2021/12/25 02:40:06;;;;;;;0.80;0.80;;;;;;;;;;4998729;28;20025;-70
2021/12/25 02:42:31;;;;;;;0.80;0.80;;;;;;;;;;4997622;28;20087;-71
2021/12/25 02:44:57;;;;;;;0.70;0.70;;;;;;;;;;4997352;28;20030;-70
2021/12/25 02:47:22;;;;;;;1.08;0.77;;;;;;;;;;4996231;28;20074;-70
2021/12/25 02:49:51;;;;;;;0.75;0.75;;;;;;;;;;4980800;28;20101;-71
2021/12/25 02:52:16;;;;;;;0.70;0.70;;;;;;;;;;4995895;28;20014;-70
2021/12/25 02:54:43;;;;;;;0.95;0.95;;;;;;;;;;4997018;28;20018;-71
2021/12/25 02:57:09;;;;;;;1.30;0.88;;;;;;;;;;4996437;28;20107;-71
2021/12/25 02:59:34;;;;;;;0.70;0.70;;;;;;;;;;4996412;28;20112;-73
2021/12/25 03:02:09;;;;;;;0.80;0.80;;;;;;;;;;4995052;28;20045;-70
2021/12/25 03:04:42;;;;;;;0.70;0.70;;;;;;;;;;4995715;28;20030;-73
2021/12/25 03:07:08;;;;;;;2.22;0.90;;;;;;;;;;4995508;28;20076;-71
2021/12/25 03:09:33;;;;;;;1.00;0.77;;;;;;;;;;4996403;28;20075;-70
2021/12/25 03:11:59;;;;;;;0.82;0.70;;;;;;;;;;4997279;28;20050;-71
2021/12/25 03:14:35;;;;;;;0.80;0.80;;;;;;;;;;4996527;28;20045;-71
2021/12/25 03:17:00;;;;;;;0.80;0.80;;;;;;;;;;4995296;28;20121;-71
2021/12/25 03:19:31;;;;;;;1.02;0.88;;;;;;;;;;4996130;28;20570;-73
2021/12/25 03:21:57;;;;;;;0.68;0.68;;;;;;;;;;4995489;28;20088;-71
2021/12/25 03:24:23;;;;;;;1.83;0.90;;;;;;;;;;4996218;28;20030;-71
2021/12/25 03:26:52;;;;;;;1.40;0.70;;;;;;;;;;4997278;28;20447;-71
2021/12/25 03:29:17;;;;;;;0.77;0.75;;;;;;;;;;4995775;28;20023;-71
2021/12/25 03:31:43;;;;;;;1.13;0.70;;;;;;;;;;4993942;28;20746;-72
2021/12/25 03:34:08;;;;;;;0.75;0.75;;;;;;;;;;4995608;28;20018;-71
2021/12/25 03:36:33;;;;;;;0.80;0.80;;;;;;;;;;4997139;28;20026;-71
2021/12/25 03:39:00;;;;;;;2.40;1.30;;;;;;;;;;4996037;28;20092;-73
2021/12/25 03:41:25;;;;;;;0.80;0.80;;;;;;;;;;4994676;28;20065;-71
2021/12/25 03:43:51;;;;;;;0.70;0.70;;;;;;;;;;4995104;28;20070;-71
2021/12/25 03:46:17;;;;;;;4.22;0.90;;;;;;;;;;4996088;28;20535;-70
2021/12/25 03:59:41;;;;;;;0.80;0.80;;;;;;;;;;4982543;28;20069;-71
2021/12/25 04:02:15;;;;;;;0.75;0.75;;;;;;;;;;4995628;28;19917;-71
2021/12/25 04:04:45;;;;;;;0.80;0.80;;;;;;;;;;4997057;28;20018;-71
2021/12/25 04:10:08;;;;;;;1.40;0.77;;;;;;;;;;4974477;28;20116;-71
2021/12/25 04:12:33;;;;;;;0.77;0.77;;;;;;;;;;4995342;28;20147;-71
2021/12/25 04:14:59;;;;;;;0.80;0.75;;;;;;;;;;4995810;28;20033;-70
2021/12/25 04:17:24;;;;;;;1.00;0.90;;;;;;;;;;4996091;28;20311;-71
2021/12/25 04:19:49;;;;;;;0.88;0.80;;;;;;;;;;4995086;28;20038;-71
2021/12/25 04:22:20;;;;;;;1.42;0.80;;;;;;;;;;4996700;28;20065;-71
2021/12/25 04:24:47;;;;;;;0.82;0.80;;;;;;;;;;4996518;28;20080;-72
2021/12/25 04:27:15;;;;;;;0.70;0.70;;;;;;;;;;4998194;28;20018;-71
2021/12/25 04:29:47;;;;;;;1.52;0.90;;;;;;;;;;4998174;28;20051;-71
2021/12/25 04:32:42;;;;;;;0.70;0.70;;;;;;;;;;4997834;28;20034;-71
2021/12/25 05:04:43;;;;;;;0.70;0.70;;;;;;;;;;5000370;28;20485;-73
2021/12/25 05:07:10;;;;;;;0.80;0.80;;;;;;;;;;4999084;28;20092;-72
2021/12/25 05:09:35;;;;;;;0.80;0.80;;;;;;;;;;4999343;28;20030;-71
2021/12/25 05:12:00;;;;;;;0.93;0.93;;;;;;;;;;4998664;28;20029;-71
2021/12/25 05:14:26;;;;;;;0.75;0.75;;;;;;;;;;4998242;28;20018;-71
2021/12/25 05:16:52;;;;;;;0.82;0.82;;;;;;;;;;4997392;28;20124;-71
2021/12/25 05:19:18;;;;;;;0.93;0.90;;;;;;;;;;4997513;28;20020;-71
2021/12/25 05:21:43;;;;;;;1.08;1.00;;;;;;;;;;4999772;28;20026;-73
2021/12/25 05:24:08;;;;;;;0.93;0.93;;;;;;;;;;4999098;28;20480;-71
2021/12/25 05:26:34;;;;;;;0.82;0.80;;;;;;;;;;4980840;28;20543;-71
2021/12/25 05:29:01;;;;;;;0.80;0.80;;;;;;;;;;4997270;28;20084;-71
2021/12/25 05:31:28;;;;;;;0.80;0.80;;;;;;;;;;4997856;28;20144;-70
2021/12/25 05:33:54;;;;;;;1.38;0.90;;;;;;;;;;4996745;28;20553;-73
2021/12/25 05:36:19;;;;;;;2.17;1.30;;;;;;;;;;4997956;28;20072;-71
2021/12/25 05:38:45;;;;;;;1.63;1.52;;;;;;;;;;4998550;28;20036;-71
2021/12/25 05:41:11;;;;;;;0.98;0.98;;;;;;;;;;4998547;28;20033;-71
2021/12/25 05:43:37;;;;;;;1.08;1.08;;;;;;;;;;4998394;28;20018;-72
2021/12/25 05:46:02;;;;;;;1.35;1.17;;;;;;;;;;4999064;28;20033;-72
2021/12/25 05:48:27;;;;;;;1.00;1.00;;;;;;;;;;4997749;28;20042;-72
2021/12/25 05:50:54;;;;;;;1.90;0.90;;;;;;;;;;5000481;28;20047;-72
2021/12/25 05:53:19;;;;;;;1.42;1.00;;;;;;;;;;4998497;28;20055;-72
2021/12/25 05:55:44;;;;;;;0.80;0.80;;;;;;;;;;4998522;28;20408;-71
2021/12/25 05:58:10;;;;;;;0.80;0.80;;;;;;;;;;4999520;28;20580;-69
2021/12/25 06:00:36;;;;;;;1.45;1.10;;;;;;;;;;4997304;28;20505;-68
2021/12/25 06:03:03;;;;;;;5.82;0.90;;;;;;;;;;4997659;28;20038;-69
2021/12/25 06:05:28;;;;;;;7.07;1.00;;;;;;;;;;4999530;28;20100;-69
2021/12/25 06:07:53;;;;;;;1.05;0.90;;;;;;;;;;4998537;28;20033;-69
2021/12/25 06:10:19;;;;;;;0.80;0.80;;;;;;;;;;4996498;28;20033;-69
2021/12/25 06:12:44;;;;;;;0.82;0.82;;;;;;;;;;4998637;28;20043;-71
2021/12/25 06:15:12;;;;;;;1.35;1.00;;;;;;;;;;4995195;28;20026;-69
2021/12/25 06:17:37;;;;;;;2.55;1.10;;;;;;;;;;4995445;28;20077;-69
2021/12/25 06:20:03;;;;;;;1.08;1.00;;;;;;;;;;4998031;28;20139;-70
2021/12/25 06:22:28;;;;;;;1.13;1.13;;;;;;;;;;4997106;28;20271;-69
2021/12/25 06:24:54;;;;;;;1.23;1.10;;;;;;;;;;4998794;28;20101;-69
2021/12/25 06:27:20;;;;;;;1.27;1.17;;;;;;;;;;4998435;28;20037;-69
2021/12/25 06:29:46;;;;;;;1.25;1.00;;;;;;;;;;4997899;28;20036;-69
2021/12/25 06:32:11;;;;;;;1.20;1.10;;;;;;;;;;4995825;28;20072;-69
2021/12/25 06:34:37;;;;;;;3.55;1.10;;;;;;;;;;4979253;28;20397;-68
2021/12/25 06:37:02;;;;;;;1.55;1.10;;;;;;;;;;4997070;28;20042;-69
2021/12/25 06:39:28;;;;;;;1.38;1.35;;;;;;;;;;4998431;28;20132;-69
2021/12/25 06:41:53;;;;;;;1.15;1.15;;;;;;;;;;4996580;28;20021;-69
2021/12/25 06:44:20;;;;;;;1.65;1.40;;;;;;;;;;4992007;28;20026;-69
2021/12/25 06:46:45;;;;;;;1.50;1.40;;;;;;;;;;4993130;28;20068;-69
2021/12/25 06:49:11;;;;;;;2.92;1.50;;;;;;;;;;5004937;28;20065;-69
2021/12/25 06:51:36;;;;;;;1.45;1.35;;;;;;;;;;4996402;28;20511;-69
2021/12/25 06:54:02;;;;;;;1.52;1.38;;;;;;;;;;4992746;28;20048;-69
2021/12/25 06:56:28;;;;;;;1.35;1.25;;;;;;;;;;4989477;28;20054;-69
2021/12/25 06:58:53;;;;;;;1.60;1.50;;;;;;;;;;4995185;28;20022;-69
2021/12/25 07:01:18;;;;;;;2.72;1.58;;;;;;;;;;4993164;28;20052;-69
2021/12/25 07:03:44;;;;;;;1.55;1.38;;;;;;;;;;4994745;28;20425;-69
2021/12/25 07:06:10;;;;;;;1.45;1.35;;;;;;;;;;4992998;28;20053;-69
2021/12/25 07:08:35;;;;;;;1.77;1.55;;;;;;;;;;4992837;28;20524;-69
2021/12/25 07:11:00;;;;;;;2.20;1.50;;;;;;;;;;4993261;28;20030;-69
2021/12/25 07:13:26;;;;;;;3.30;1.48;;;;;;;;;;4993625;28;20419;-69
2021/12/25 07:15:51;;;;;;;1.60;1.33;;;;;;;;;;4992980;28;20036;-71
2021/12/25 07:18:16;;;;;;;1.50;1.15;;;;;;;;;;4994013;28;20382;-71
2021/12/25 07:20:42;;;;;;;1.63;1.50;;;;;;;;;;4991735;28;21044;-71
2021/12/25 07:23:08;;;;;;;2.15;1.10;;;;;;;;;;4991198;28;20033;-71
2021/12/25 07:25:33;;;;;;;1.40;1.30;;;;;;;;;;4992483;28;20579;-71
2021/12/25 07:27:58;;;;;;;1.50;1.38;;;;;;;;;;4994536;28;20586;-70
2021/12/25 07:30:23;;;;;;;1.58;1.48;;;;;;;;;;4991025;28;20026;-70
2021/12/25 07:32:49;;;;;;;1.65;1.38;;;;;;;;;;4993838;28;20044;-70
2021/12/25 07:35:14;;;;;;;1.73;1.58;;;;;;;;;;4989920;28;20388;-70
2021/12/25 07:37:39;;;;;;;3.60;1.50;;;;;;;;;;4994897;28;20437;-71
2021/12/25 07:40:06;;;;;;;13.00;1.55;;;;;;;;;;4995422;28;20566;-70
2021/12/25 07:42:31;;;;;;;1.45;0.90;;;;;;;;;;4994042;28;20037;-70
2021/12/25 07:45:03;;;;;;;1.13;1.00;;;;;;;;;;4996264;28;20065;-71
2021/12/25 07:47:28;;;;;;;0.70;0.70;;;;;;;;;;4996249;28;20033;-71
2021/12/25 07:49:56;;;;;;;0.85;0.85;;;;;;;;;;4993453;28;20044;-71
2021/12/25 07:52:22;;;;;;;0.68;0.68;;;;;;;;;;4988021;28;20495;-71
2021/12/25 07:54:47;;;;;;;1.40;0.80;;;;;;;;;;4988549;28;20026;-71
2021/12/25 07:57:12;;;;;;;0.73;0.73;;;;;;;;;;4991262;28;20018;-71
2021/12/25 07:59:38;;;;;;;0.80;0.80;;;;;;;;;;4996032;28;20030;-71
2021/12/25 08:02:03;;;;;;;3.17;0.90;;;;;;;;;;4995426;28;20475;-71
2021/12/25 08:04:28;;;;;;;0.70;0.70;;;;;;;;;;4999621;28;20041;-71
2021/12/25 08:06:54;;;;;;;0.80;0.80;;;;;;;;;;4996666;28;20030;-71
2021/12/25 08:09:28;;;;;;;0.70;0.70;;;;;;;;;;4998241;28;20172;-71
2021/12/25 08:11:55;;;;;;;1.33;0.80;;;;;;;;;;4993515;28;20034;-71
2021/12/25 08:14:23;;;;;;;1.00;0.90;;;;;;;;;;4993648;28;20515;-71
2021/12/25 08:16:48;;;;;;;1.30;0.90;;;;;;;;;;4996622;28;20092;-71
2021/12/25 08:19:13;;;;;;;1.25;1.10;;;;;;;;;;4997184;28;20038;-71
2021/12/25 08:21:39;;;;;;;1.30;1.20;;;;;;;;;;4997980;28;20073;-71
2021/12/25 08:24:04;;;;;;;1.38;1.10;;;;;;;;;;4995233;28;20084;-71
2021/12/25 08:26:29;;;;;;;1.38;1.27;;;;;;;;;;4995147;28;20064;-71
2021/12/25 08:28:55;;;;;;;1.63;1.23;;;;;;;;;;4994456;28;20073;-71
2021/12/25 08:31:20;;;;;;;2.67;1.20;;;;;;;;;;4995467;28;20160;-71
2021/12/25 08:33:45;;;;;;;1.40;1.30;;;;;;;;;;4994627;28;20586;-71
2021/12/25 08:36:11;;;;;;;1.52;1.42;;;;;;;;;;4997381;28;20045;-71
2021/12/25 08:38:36;;;;;;;1.35;1.25;;;;;;;;;;4996841;28;20070;-71
2021/12/25 08:41:01;;;;;;;1.33;1.23;;;;;;;;;;4998418;28;20176;-71
2021/12/25 08:43:33;;;;;;;2.53;1.50;;;;;;;;;;4995976;28;20685;-71
2021/12/25 08:46:04;;;;;;;1.75;1.58;;;;;;;;;;4996690;28;20469;-71
2021/12/25 08:48:30;;;;;;;1.73;1.48;;;;;;;;;;4998455;28;20038;-71
2021/12/25 08:50:57;;;;;;;3.88;1.65;;;;;;;;;;4993912;28;20437;-71
2021/12/25 08:53:23;;;;;;;1.40;1.30;;;;;;;;;;4997815;28;20105;-71
2021/12/25 08:55:49;;;;;;;1.55;1.45;;;;;;;;;;4998432;28;20641;-71
2021/12/25 08:58:14;;;;;;;1.50;1.40;;;;;;;;;;4997456;28;20030;-71
2021/12/25 09:00:40;;;;;;;1.88;1.63;;;;;;;;;;4997156;28;20050;-71
2021/12/25 09:03:05;;;;;;;3.15;1.80;;;;;;;;;;4998610;28;20101;-71
2021/12/25 09:05:32;;;;;;;1.52;1.42;;;;;;;;;;4994212;28;20116;-71
2021/12/25 09:07:57;;;;;;;1.55;1.40;;;;;;;;;;4999821;28;20053;-71
2021/12/25 09:10:23;;;;;;;1.60;1.50;;;;;;;;;;4997939;28;20071;-71
2021/12/25 09:12:49;;;;;;;2.80;1.42;;;;;;;;;;4996760;28;20458;-71
2021/12/25 09:15:15;;;;;;;3.03;1.70;;;;;;;;;;4994419;28;20066;-71
2021/12/25 09:17:42;;;;;;;1.60;1.50;;;;;;;;;;4998600;28;20505;-71
2021/12/25 09:20:08;;;;;;;1.63;1.35;;;;;;;;;;4993309;28;20127;-71
2021/12/25 09:22:33;;;;;;;2.30;1.88;;;;;;;;;;4994741;28;20077;-71
2021/12/25 09:24:59;;;;;;;1.83;1.48;;;;;;;;;;4997298;28;20080;-71
2021/12/25 09:27:24;;;;;;;2.35;1.60;;;;;;;;;;4995436;28;20041;-71
2021/12/25 09:29:49;;;;;;;1.75;1.65;;;;;;;;;;4995438;28;20034;-71
2021/12/25 09:32:15;;;;;;;1.60;1.50;;;;;;;;;;4997264;28;20097;-71
2021/12/25 09:34:40;;;;;;;1.90;1.80;;;;;;;;;;4992201;28;20064;-71
2021/12/25 09:37:06;;;;;;;1.65;1.42;;;;;;;;;;4989947;28;20166;-71
2021/12/25 09:39:31;;;;;;;1.38;1.27;;;;;;;;;;4996460;28;20037;-71
2021/12/25 09:41:57;;;;;;;2.80;1.60;;;;;;;;;;4996682;28;20089;-68
2021/12/25 09:44:22;;;;;;;1.40;1.30;;;;;;;;;;4998363;28;20037;-69
2021/12/25 09:46:48;;;;;;;1.52;1.42;;;;;;;;;;4997022;28;20017;-70
2021/12/25 09:49:13;;;;;;;2.65;1.50;;;;;;;;;;4998399;28;20251;-67
2021/12/25 09:51:38;;;;;;;1.77;1.67;;;;;;;;;;4999035;28;20033;-67
2021/12/25 09:54:06;;;;;;;2.47;1.65;;;;;;;;;;4999086;28;20104;-67
2021/12/25 09:56:32;;;;;;;2.20;1.75;;;;;;;;;;4996206;28;20092;-67
2021/12/25 09:58:57;;;;;;;2.05;1.40;;;;;;;;;;4999584;28;20480;-67
2021/12/25 10:01:35;;;;;;;1.50;1.40;;;;;;;;;;4996016;28;20176;-67
2021/12/25 10:04:00;;;;;;;2.42;1.67;;;;;;;;;;4997559;28;20080;-69
2021/12/25 10:06:35;;;;;;;1.85;1.42;;;;;;;;;;4994435;28;20121;-69
2021/12/25 10:09:20;;;;;;;1.70;1.60;;;;;;;;;;4999440;28;20168;-69
2021/12/25 10:11:59;;;;;;;1.50;1.40;;;;;;;;;;4996692;28;20022;-67
2021/12/25 10:14:25;;;;;;;4.30;1.38;;;;;;;;;;4993488;28;20096;-69
2021/12/25 10:16:50;;;;;;;1.55;1.38;;;;;;;;;;4994366;28;20038;-69
2021/12/25 10:19:18;;;;;;;1.60;1.50;;;;;;;;;;4998530;28;20022;-65
2021/12/25 10:21:43;;;;;;;2.60;1.67;;;;;;;;;;4992069;28;20057;-65
2021/12/25 10:24:16;;;;;;;2.40;1.25;;;;;;;;;;4999592;28;20040;-65
2021/12/25 10:26:43;;;;;;;2.00;1.73;;;;;;;;;;4994293;28;20037;-69
2021/12/25 10:29:15;;;;;;;1.30;1.20;;;;;;;;;;4980042;28;20370;-67
2021/12/25 10:31:41;;;;;;;2.72;1.50;;;;;;;;;;4996535;28;20130;-68
2021/12/25 10:34:14;;;;;;;2.08;1.33;;;;;;;;;;4994121;28;20091;-67
2021/12/25 10:36:39;;;;;;;1.88;1.40;;;;;;;;;;4993567;28;20161;-67
2021/12/25 10:39:10;;;;;;;2.85;1.30;;;;;;;;;;4992276;28;20540;-67
2021/12/25 10:41:38;;;;;;;1.38;1.27;;;;;;;;;;4995978;28;20112;-67
2021/12/25 10:44:12;;;;;;;1.30;1.20;;;;;;;;;;4992514;28;20694;-67
2021/12/25 10:46:54;;;;;;;1.67;1.13;;;;;;;;;;4991818;28;20496;-67
2021/12/25 10:49:21;;;;;;;1.15;1.08;;;;;;;;;;4995921;28;20068;-67
2021/12/25 10:51:46;;;;;;;2.75;1.35;;;;;;;;;;4993320;28;20018;-67
2021/12/25 10:54:14;;;;;;;1.20;1.10;;;;;;;;;;4994554;28;20193;-67
2021/12/25 10:56:40;;;;;;;1.33;1.23;;;;;;;;;;4993884;28;20883;-67
2021/12/25 10:59:13;;;;;;;1.10;1.10;;;;;;;;;;4994562;28;20054;-67
2021/12/25 11:01:45;;;;;;;3.15;1.38;;;;;;;;;;4991573;28;20039;-67
2021/12/25 11:04:36;;;;;;;1.20;0.98;;;;;;;;;;4990387;28;20040;-67
2021/12/25 11:07:14;;;;;;;1.00;1.00;;;;;;;;;;4993285;28;20111;-67
2021/12/25 11:09:39;;;;;;;1.38;1.00;;;;;;;;;;4993038;28;20043;-69
2021/12/25 11:12:18;;;;;;;1.42;1.00;;;;;;;;;;4992369;28;20038;-68
2021/12/25 11:14:44;;;;;;;1.02;1.02;;;;;;;;;;4990370;28;20124;-69
2021/12/25 11:17:27;;;;;;;1.30;1.13;;;;;;;;;;4994729;28;20539;-68
2021/12/25 11:20:01;;;;;;;1.20;1.20;;;;;;;;;;4994265;28;20030;-69
2021/12/25 11:22:27;;;;;;;1.13;1.08;;;;;;;;;;4994853;28;20060;-69
2021/12/25 11:24:53;;;;;;;1.23;1.13;;;;;;;;;;4994236;28;20507;-68
2021/12/25 11:27:20;;;;;;;1.27;1.08;;;;;;;;;;4994373;28;20552;-68
2021/12/25 11:29:46;;;;;;;1.00;1.00;;;;;;;;;;4978165;28;20023;-69
2021/12/25 11:32:12;;;;;;;2.70;1.13;;;;;;;;;;4976692;28;20031;-69
2021/12/25 11:34:37;;;;;;;1.10;1.02;;;;;;;;;;4994537;28;20129;-69
2021/12/25 11:37:03;;;;;;;2.67;0.90;;;;;;;;;;4994574;28;20520;-69
2021/12/25 11:39:28;;;;;;;1.77;1.23;;;;;;;;;;4995721;28;20084;-69
2021/12/25 11:41:57;;;;;;;0.93;0.93;;;;;;;;;;4993890;28;20485;-67
2021/12/25 11:44:40;;;;;;;1.67;1.02;;;;;;;;;;4995113;28;20120;-69
2021/12/25 11:47:06;;;;;;;2.42;1.00;;;;;;;;;;4992456;28;20030;-69
2021/12/25 11:49:32;;;;;;;0.80;0.80;;;;;;;;;;4992784;28;20030;-68
2021/12/25 11:52:14;;;;;;;0.93;0.93;;;;;;;;;;4994404;28;20030;-69
2021/12/25 11:54:44;;;;;;;1.15;1.05;;;;;;;;;;4992458;28;20033;-69
2021/12/25 11:59:43;;;;;;;1.17;1.08;;;;;;;;;;4994036;28;20058;-68
2021/12/25 12:02:08;;;;;;;1.10;1.10;;;;;;;;;;4993651;28;20057;-69
2021/12/25 12:04:35;;;;;;;1.15;0.93;;;;;;;;;;4993842;28;20030;-69
2021/12/25 12:07:13;;;;;;;0.93;0.93;;;;;;;;;;4995680;28;20274;-68
2021/12/25 12:09:44;;;;;;;1.20;1.10;;;;;;;;;;4995117;28;20029;-69
2021/12/25 12:12:17;;;;;;;0.90;0.90;;;;;;;;;;4994988;28;20439;-68
2021/12/25 12:14:43;;;;;;;1.20;1.10;;;;;;;;;;4993804;28;20026;-69
2021/12/25 12:17:24;;;;;;;1.08;1.00;;;;;;;;;;4992342;28;20025;-68
2021/12/25 12:19:51;;;;;;;1.15;1.10;;;;;;;;;;4994822;28;20026;-69
2021/12/25 12:22:28;;;;;;;1.38;1.00;;;;;;;;;;4995026;28;20400;-68
2021/12/25 12:25:17;;;;;;;1.00;1.00;;;;;;;;;;4993927;28;20109;-68
2021/12/25 12:27:48;;;;;;;0.98;0.98;;;;;;;;;;4991969;28;20584;-66
2021/12/25 12:30:32;;;;;;;0.90;0.90;;;;;;;;;;4992315;28;20026;-65
2021/12/25 12:32:58;;;;;;;0.80;0.80;;;;;;;;;;4978911;28;20052;-66
2021/12/25 12:35:34;;;;;;;0.80;0.80;;;;;;;;;;4992394;28;20070;-66
2021/12/25 12:38:36;;;;;;;0.70;0.70;;;;;;;;;;4995337;28;20042;-66
2021/12/25 12:41:21;;;;;;;0.90;0.90;;;;;;;;;;4994427;28;20030;-66
2021/12/25 12:44:07;;;;;;;0.88;0.88;;;;;;;;;;4989725;28;20022;-64
2021/12/25 12:46:47;;;;;;;0.70;0.70;;;;;;;;;;4995216;28;20057;-66
2021/12/25 12:49:13;;;;;;;0.90;0.90;;;;;;;;;;4996470;28;20126;-66
2021/12/25 12:51:38;;;;;;;0.77;0.77;;;;;;;;;;4998983;28;20452;-65
2021/12/25 12:54:04;;;;;;;0.65;0.65;;;;;;;;;;5001501;28;20026;-65
2021/12/25 12:56:29;;;;;;;0.70;0.70;;;;;;;;;;5000087;28;20034;-66
2021/12/25 12:58:56;;;;;;;0.65;0.65;;;;;;;;;;4999439;28;20026;-66
2021/12/25 13:01:22;;;;;;;0.95;0.80;;;;;;;;;;4998188;28;20046;-66
2021/12/25 13:03:47;;;;;;;0.80;0.80;;;;;;;;;;4998638;28;20034;-66
2021/12/25 13:06:15;;;;;;;0.70;0.70;;;;;;;;;;4998348;28;20030;-66
2021/12/25 13:08:42;;;;;;;0.80;0.80;;;;;;;;;;4999749;28;20510;-66
2021/12/25 13:11:13;;;;;;;0.80;0.80;;;;;;;;;;5002191;28;20033;-66
2021/12/25 13:13:46;;;;;;;0.70;0.70;;;;;;;;;;4999853;28;20392;-66
2021/12/25 13:16:13;;;;;;;3.17;0.98;;;;;;;;;;4997142;28;20058;-65
2021/12/25 13:18:46;;;;;;;0.70;0.70;;;;;;;;;;5000188;28;20137;-66
2021/12/25 13:21:16;;;;;;;0.73;0.73;;;;;;;;;;4999141;28;20500;-66
2021/12/25 13:23:49;;;;;;;0.70;0.70;;;;;;;;;;5001590;28;20039;-65
2021/12/25 13:26:15;;;;;;;0.80;0.80;;;;;;;;;;5000509;28;20109;-66
2021/12/25 13:28:41;;;;;;;0.60;0.60;;;;;;;;;;4998655;28;20120;-66
2021/12/25 13:31:16;;;;;;;0.55;0.55;;;;;;;;;;4998419;28;20034;-66
2021/12/25 13:33:44;;;;;;;0.75;0.65;;;;;;;;;;4997615;28;20560;-66
2021/12/25 13:36:11;;;;;;;0.50;0.50;;;;;;;;;;4994567;28;20392;-65
2021/12/25 13:38:47;;;;;;;0.70;0.70;;;;;;;;;;5003320;28;20037;-66
2021/12/25 13:41:13;;;;;;;0.63;0.63;;;;;;;;;;4998643;28;20354;-65
2021/12/25 13:43:38;;;;;;;1.77;0.82;;;;;;;;;;4998686;28;20100;-66
2021/12/25 13:46:04;;;;;;;0.98;0.70;;;;;;;;;;4999406;28;20532;-65
2021/12/25 13:48:39;;;;;;;0.60;0.60;;;;;;;;;;4997682;28;20093;-65
2021/12/25 13:51:04;;;;;;;0.60;0.60;;;;;;;;;;5000712;28;20429;-65
2021/12/25 13:53:31;;;;;;;1.17;0.60;;;;;;;;;;4995149;28;20038;-65
2021/12/25 13:55:57;;;;;;;0.60;0.60;;;;;;;;;;4996888;28;20612;-65
2021/12/25 13:58:26;;;;;;;0.52;0.52;;;;;;;;;;4997539;28;20026;-65
2021/12/25 14:00:51;;;;;;;0.80;0.80;;;;;;;;;;4996847;28;20405;-66
2021/12/25 14:03:19;;;;;;;1.23;1.13;;;;;;;;;;4995146;28;20026;-67
2021/12/25 14:05:48;;;;;;;0.73;0.73;;;;;;;;;;4996837;28;20440;-68
2021/12/25 14:08:14;;;;;;;0.60;0.60;;;;;;;;;;4996440;28;20037;-69
2021/12/25 14:10:40;;;;;;;2.13;0.80;;;;;;;;;;4998142;28;20473;-69
2021/12/25 14:13:15;;;;;;;0.98;0.68;;;;;;;;;;4996842;28;20045;-68
2021/12/25 14:15:40;;;;;;;;;;;;;;;;;;4997711;28;20497;-67
2021/12/25 14:18:06;;;;;;;0.50;0.50;;;;;;;;;;4997104;28;19952;-70
2021/12/25 14:20:32;;;;;;;1.05;0.70;;;;;;;;;;4995387;28;20046;-70
2021/12/25 14:23:04;;;;;;;1.40;0.65;;;;;;;;;;4996740;28;20026;-70
2021/12/25 14:25:32;;;;;;;0.60;0.60;;;;;;;;;;4995999;28;20061;-70
2021/12/25 14:28:07;;;;;;;1.27;0.80;;;;;;;;;;4992035;28;20061;-71
2021/12/25 14:30:57;;;;;;;0.57;0.57;;;;;;;;;;4991205;28;20051;-71
2021/12/25 14:33:22;;;;;;;0.85;0.75;;;;;;;;;;4997885;28;20393;-69
2021/12/25 14:35:48;;;;;;;0.70;0.70;;;;;;;;;;4979815;28;20025;-67
2021/12/25 14:38:13;;;;;;;2.05;0.80;;;;;;;;;;4989172;28;20049;-67
2021/12/25 14:40:45;;;;;;;0.70;0.70;;;;;;;;;;4992560;28;20030;-67
2021/12/25 14:43:11;;;;;;;0.60;0.60;;;;;;;;;;4994776;28;20061;-68
2021/12/25 14:45:50;;;;;;;1.25;0.73;;;;;;;;;;4995298;28;20060;-67
2021/12/25 14:48:45;;;;;;;0.52;0.52;;;;;;;;;;4994800;28;20069;-68
2021/12/25 14:51:15;;;;;;;1.05;0.70;;;;;;;;;;4981103;28;20683;-68
2021/12/25 14:53:51;;;;;;;0.60;0.60;;;;;;;;;;4996613;28;20038;-67
2021/12/25 14:56:20;;;;;;;0.60;0.60;;;;;;;;;;4996625;28;20397;-68
2021/12/25 14:58:58;;;;;;;0.68;0.68;;;;;;;;;;4997350;28;20080;-67
2021/12/25 15:01:27;;;;;;;0.55;0.55;;;;;;;;;;4997517;28;20173;-68
2021/12/25 15:04:20;;;;;;;0.65;0.65;;;;;;;;;;4997960;28;20045;-68
2021/12/25 15:06:56;;;;;;;0.88;0.88;;;;;;;;;;4999520;28;20543;-68
2021/12/25 15:09:23;;;;;;;0.70;0.70;;;;;;;;;;4998521;28;20022;-68
2021/12/25 15:11:50;;;;;;;0.73;0.70;;;;;;;;;;4996442;28;20093;-68
2021/12/25 15:14:24;;;;;;;0.68;0.57;;;;;;;;;;4996507;28;20042;-68
2021/12/25 15:16:50;;;;;;;;;;;;;;;;;;4995523;28;20118;-68
2021/12/25 15:19:35;;;;;;;0.70;0.70;;;;;;;;;;4997347;28;20000;-68
2021/12/25 15:22:08;;;;;;;0.60;0.60;;;;;;;;;;4996096;28;20092;-68
2021/12/25 15:24:33;;;;;;;0.70;0.70;;;;;;;;;;4994761;28;20049;-67
2021/12/25 15:27:00;;;;;;;0.70;0.70;;;;;;;;;;4995324;28;20077;-67
2021/12/25 15:29:34;;;;;;;0.93;0.85;;;;;;;;;;4994940;28;20034;-67
2021/12/25 15:32:02;;;;;;;0.75;0.70;;;;;;;;;;4994147;28;20038;-68
2021/12/25 15:34:27;;;;;;;0.60;0.60;;;;;;;;;;4994189;28;20038;-67
2021/12/25 15:36:52;;;;;;;0.60;0.60;;;;;;;;;;4994567;28;20530;-67
2021/12/25 15:39:21;;;;;;;0.50;0.50;;;;;;;;;;4991909;28;20057;-67
2021/12/25 15:41:47;;;;;;;0.70;0.70;;;;;;;;;;4991065;28;20042;-68
2021/12/25 15:44:13;;;;;;;0.70;0.70;;;;;;;;;;4995520;28;20527;-67
2021/12/25 15:46:38;;;;;;;0.82;0.60;;;;;;;;;;4994304;28;20050;-69
2021/12/25 15:49:04;;;;;;;0.60;0.60;;;;;;;;;;5001714;28;20022;-68
2021/12/25 15:51:29;;;;;;;0.65;0.65;;;;;;;;;;4994364;28;20050;-68
2021/12/25 15:53:55;;;;;;;1.17;0.80;;;;;;;;;;4993142;28;20402;-69
2021/12/25 15:56:21;;;;;;;0.80;0.80;;;;;;;;;;5001098;28;20030;-69
2021/12/25 15:58:46;;;;;;;0.70;0.70;;;;;;;;;;4999691;28;20079;-68
2021/12/25 16:01:12;;;;;;;0.80;0.80;;;;;;;;;;4996847;28;20070;-68
2021/12/25 16:03:37;;;;;;;0.80;0.80;;;;;;;;;;5001595;28;20058;-68